Terminal Aerodrome Forecast
Issued by NWS

Home | Current Version | Previous Version | Text Only | Print | Product List | Glossary On
Versions: 1 2 3 4 5 6 7 8 9 10 11 12
000
FTUS46 KMTR 220601 RRA
TAFSNS
TAF
KSNS 220601Z 2206/2306 27005KT P6SM BKN030 BKN050
     FM220900 30003KT P6SM SCT030 BKN060
     FM222000 27011KT P6SM SCT050
     FM230400 27005KT P6SM SKC=

USA.gov is the U.S. government's official web portal to all federal, state and local government web resources and services.